Terminal Aerodrome Forecast
Issued by NWS

Home | Current Version | Previous Version | Graphics & Text | Print | Product List | Glossary On
Versions: 1 2 3 4 5 6 7 8 9 10 11 12 13 14 15
000
FTUS43 KICT 221120
TAFSLN
TAF
KSLN 221120Z 2212/2312 34011KT P6SM BKN050
     FM221700 34015G22KT P6SM SCT250
     FM230200 30006KT P6SM SKC=

USA.gov is the U.S. government's official web portal to all federal, state and local government web resources and services.